sensor_id;sensor_type;location;lat;lon;timestamp;temperature;humidity
5808;DHT22;2930;42.678;23.312;2023-05-07T00:02:24;11.90;88.70
5808;DHT22;2930;42.678;23.312;2023-05-07T00:04:50;11.90;88.00
5808;DHT22;2930;42.678;23.312;2023-05-07T00:07:17;11.80;88.80
5808;DHT22;2930;42.678;23.312;2023-05-07T00:09:43;11.60;90.00
5808;DHT22;2930;42.678;23.312;2023-05-07T00:12:08;11.50;90.00
5808;DHT22;2930;42.678;23.312;2023-05-07T00:14:34;11.50;88.80
5808;DHT22;2930;42.678;23.312;2023-05-07T00:17:00;11.50;88.70
5808;DHT22;2930;42.678;23.312;2023-05-07T00:19:25;11.60;88.30
5808;DHT22;2930;42.678;23.312;2023-05-07T00:21:51;11.60;88.10
5808;DHT22;2930;42.678;23.312;2023-05-07T00:24:18;11.60;88.50
5808;DHT22;2930;42.678;23.312;2023-05-07T00:26:44;11.60;88.30
5808;DHT22;2930;42.678;23.312;2023-05-07T00:29:10;11.60;88.20
5808;DHT22;2930;42.678;23.312;2023-05-07T00:31:35;11.50;88.60
5808;DHT22;2930;42.678;23.312;2023-05-07T00:34:01;11.50;88.30
5808;DHT22;2930;42.678;23.312;2023-05-07T00:36:27;11.40;88.40
5808;DHT22;2930;42.678;23.312;2023-05-07T00:38:53;11.40;88.60
5808;DHT22;2930;42.678;23.312;2023-05-07T00:41:20;11.40;89.10
5808;DHT22;2930;42.678;23.312;2023-05-07T00:43:45;11.40;89.20
5808;DHT22;2930;42.678;23.312;2023-05-07T00:46:11;11.40;89.20
5808;DHT22;2930;42.678;23.312;2023-05-07T00:48:38;11.40;89.20
5808;DHT22;2930;42.678;23.312;2023-05-07T00:51:03;11.40;89.10
5808;DHT22;2930;42.678;23.312;2023-05-07T00:53:30;11.40;89.10
5808;DHT22;2930;42.678;23.312;2023-05-07T00:55:56;11.40;89.10
5808;DHT22;2930;42.678;23.312;2023-05-07T00:58:22;11.40;89.20
5808;DHT22;2930;42.678;23.312;2023-05-07T01:00:48;11.30;89.40
5808;DHT22;2930;42.678;23.312;2023-05-07T01:03:14;11.30;89.30
5808;DHT22;2930;42.678;23.312;2023-05-07T01:05:41;11.30;89.10
5808;DHT22;2930;42.678;23.312;2023-05-07T01:08:07;11.30;89.00
5808;DHT22;2930;42.678;23.312;2023-05-07T01:10:33;11.20;88.70
5808;DHT22;2930;42.678;23.312;2023-05-07T01:12:59;11.20;89.60
5808;DHT22;2930;42.678;23.312;2023-05-07T01:15:26;11.20;89.60
5808;DHT22;2930;42.678;23.312;2023-05-07T01:17:51;11.10;89.90
5808;DHT22;2930;42.678;23.312;2023-05-07T01:20:18;11.10;89.70
5808;DHT22;2930;42.678;23.312;2023-05-07T01:22:44;11.10;89.70
5808;DHT22;2930;42.678;23.312;2023-05-07T01:25:10;11.00;90.10
5808;DHT22;2930;42.678;23.312;2023-05-07T01:27:36;11.00;90.20
5808;DHT22;2930;42.678;23.312;2023-05-07T01:30:05;11.00;90.00
5808;DHT22;2930;42.678;23.312;2023-05-07T01:32:44;11.00;90.70
5808;DHT22;2930;42.678;23.312;2023-05-07T01:35:18;10.90;89.90
5808;DHT22;2930;42.678;23.312;2023-05-07T01:37:44;10.90;89.80
5808;DHT22;2930;42.678;23.312;2023-05-07T01:40:10;10.90;89.90
5808;DHT22;2930;42.678;23.312;2023-05-07T01:42:36;10.90;90.30
5808;DHT22;2930;42.678;23.312;2023-05-07T01:45:02;10.90;90.20
5808;DHT22;2930;42.678;23.312;2023-05-07T01:47:29;10.90;90.00
5808;DHT22;2930;42.678;23.312;2023-05-07T01:49:55;10.90;90.20
5808;DHT22;2930;42.678;23.312;2023-05-07T01:52:21;10.90;90.00
5808;DHT22;2930;42.678;23.312;2023-05-07T01:57:12;10.80;90.20
5808;DHT22;2930;42.678;23.312;2023-05-07T01:59:38;10.80;90.20
5808;DHT22;2930;42.678;23.312;2023-05-07T02:02:04;10.70;90.50
5808;DHT22;2930;42.678;23.312;2023-05-07T02:04:29;10.60;90.40
5808;DHT22;2930;42.678;23.312;2023-05-07T02:06:55;10.70;90.30
5808;DHT22;2930;42.678;23.312;2023-05-07T02:09:21;10.60;90.50
5808;DHT22;2930;42.678;23.312;2023-05-07T02:11:48;10.60;90.60
5808;DHT22;2930;42.678;23.312;2023-05-07T02:14:13;10.60;90.50
5808;DHT22;2930;42.678;23.312;2023-05-07T02:16:39;10.60;90.70
5808;DHT22;2930;42.678;23.312;2023-05-07T02:19:05;10.50;90.70
5808;DHT22;2930;42.678;23.312;2023-05-07T02:23:57;10.50;90.20
5808;DHT22;2930;42.678;23.312;2023-05-07T02:26:22;10.40;90.30
5808;DHT22;2930;42.678;23.312;2023-05-07T02:28:48;10.40;90.20
5808;DHT22;2930;42.678;23.312;2023-05-07T02:31:14;10.30;90.50
5808;DHT22;2930;42.678;23.312;2023-05-07T02:33:39;10.20;90.50
5808;DHT22;2930;42.678;23.312;2023-05-07T02:36:09;10.10;92.10
5808;DHT22;2930;42.678;23.312;2023-05-07T02:38:35;10.10;91.90
5808;DHT22;2930;42.678;23.312;2023-05-07T02:41:01;10.10;91.70
5808;DHT22;2930;42.678;23.312;2023-05-07T02:43:27;10.00;92.90
5808;DHT22;2930;42.678;23.312;2023-05-07T02:46:03;9.90;93.70
5808;DHT22;2930;42.678;23.312;2023-05-07T02:48:30;9.90;93.70
5808;DHT22;2930;42.678;23.312;2023-05-07T02:50:55;9.90;92.70
5808;DHT22;2930;42.678;23.312;2023-05-07T02:53:21;9.90;92.60
5808;DHT22;2930;42.678;23.312;2023-05-07T02:55:47;9.90;93.60
5808;DHT22;2930;42.678;23.312;2023-05-07T02:58:12;9.90;92.60
5808;DHT22;2930;42.678;23.312;2023-05-07T03:00:38;9.90;93.40
5808;DHT22;2930;42.678;23.312;2023-05-07T03:03:04;9.90;93.30
5808;DHT22;2930;42.678;23.312;2023-05-07T03:05:29;9.80;92.80
5808;DHT22;2930;42.678;23.312;2023-05-07T03:07:55;9.90;92.70
5808;DHT22;2930;42.678;23.312;2023-05-07T03:10:21;9.40;95.60
5808;DHT22;2930;42.678;23.312;2023-05-07T03:12:46;9.50;95.70
5808;DHT22;2930;42.678;23.312;2023-05-07T03:15:12;9.50;95.40
5808;DHT22;2930;42.678;23.312;2023-05-07T03:17:38;9.60;93.70
5808;DHT22;2930;42.678;23.312;2023-05-07T03:20:05;9.70;93.60
5808;DHT22;2930;42.678;23.312;2023-05-07T03:22:30;9.70;93.40
5808;DHT22;2930;42.678;23.312;2023-05-07T03:24:56;9.80;93.20
5808;DHT22;2930;42.678;23.312;2023-05-07T03:27:22;9.80;93.00
5808;DHT22;2930;42.678;23.312;2023-05-07T03:29:47;9.80;93.00
5808;DHT22;2930;42.678;23.312;2023-05-07T03:32:13;9.80;92.50
5808;DHT22;2930;42.678;23.312;2023-05-07T03:34:39;9.80;92.20
5808;DHT22;2930;42.678;23.312;2023-05-07T03:37:05;9.70;93.30
5808;DHT22;2930;42.678;23.312;2023-05-07T03:39:30;9.50;95.30
5808;DHT22;2930;42.678;23.312;2023-05-07T03:41:57;9.40;96.10
5808;DHT22;2930;42.678;23.312;2023-05-07T03:44:23;9.30;96.60
5808;DHT22;2930;42.678;23.312;2023-05-07T03:46:49;9.40;96.00
5808;DHT22;2930;42.678;23.312;2023-05-07T03:49:14;9.30;96.60
5808;DHT22;2930;42.678;23.312;2023-05-07T03:51:40;9.30;96.90
5808;DHT22;2930;42.678;23.312;2023-05-07T03:54:07;9.30;96.80
5808;DHT22;2930;42.678;23.312;2023-05-07T03:56:32;9.20;97.10
5808;DHT22;2930;42.678;23.312;2023-05-07T03:58:58;9.30;97.20
5808;DHT22;2930;42.678;23.312;2023-05-07T04:01:23;9.20;97.20
5808;DHT22;2930;42.678;23.312;2023-05-07T04:03:49;9.20;97.30
5808;DHT22;2930;42.678;23.312;2023-05-07T04:06:16;9.30;96.50
5808;DHT22;2930;42.678;23.312;2023-05-07T04:08:42;9.50;95.40
5808;DHT22;2930;42.678;23.312;2023-05-07T04:11:08;9.60;94.70
5808;DHT22;2930;42.678;23.312;2023-05-07T04:13:34;9.60;94.10
5808;DHT22;2930;42.678;23.312;2023-05-07T04:16:01;9.50;95.80
5808;DHT22;2930;42.678;23.312;2023-05-07T04:18:27;9.50;95.90
5808;DHT22;2930;42.678;23.312;2023-05-07T04:23:19;9.60;95.40
5808;DHT22;2930;42.678;23.312;2023-05-07T04:25:45;9.60;95.20
5808;DHT22;2930;42.678;23.312;2023-05-07T04:28:11;9.70;95.10
5808;DHT22;2930;42.678;23.312;2023-05-07T04:30:37;9.70;94.90
5808;DHT22;2930;42.678;23.312;2023-05-07T04:33:02;9.70;95.70
5808;DHT22;2930;42.678;23.312;2023-05-07T04:35:28;9.70;95.80
5808;DHT22;2930;42.678;23.312;2023-05-07T04:37:54;9.70;95.90
5808;DHT22;2930;42.678;23.312;2023-05-07T04:40:19;9.70;96.10
5808;DHT22;2930;42.678;23.312;2023-05-07T04:42:45;9.80;95.30
5808;DHT22;2930;42.678;23.312;2023-05-07T04:45:11;9.80;95.30
5808;DHT22;2930;42.678;23.312;2023-05-07T04:47:38;9.90;95.10
5808;DHT22;2930;42.678;23.312;2023-05-07T04:50:05;9.90;95.50
5808;DHT22;2930;42.678;23.312;2023-05-07T04:52:31;9.90;95.40
5808;DHT22;2930;42.678;23.312;2023-05-07T04:54:59;10.00;95.30
5808;DHT22;2930;42.678;23.312;2023-05-07T04:57:26;10.10;94.60
5808;DHT22;2930;42.678;23.312;2023-05-07T04:59:52;10.10;95.10
5808;DHT22;2930;42.678;23.312;2023-05-07T05:02:17;10.10;95.00
5808;DHT22;2930;42.678;23.312;2023-05-07T05:04:43;10.20;95.00
5808;DHT22;2930;42.678;23.312;2023-05-07T05:07:08;10.30;94.50
5808;DHT22;2930;42.678;23.312;2023-05-07T05:09:34;10.30;94.50
5808;DHT22;2930;42.678;23.312;2023-05-07T05:12:00;10.40;94.30
5808;DHT22;2930;42.678;23.312;2023-05-07T05:14:26;10.40;94.30
5808;DHT22;2930;42.678;23.312;2023-05-07T05:16:51;10.60;93.30
5808;DHT22;2930;42.678;23.312;2023-05-07T05:19:17;10.80;92.90
5808;DHT22;2930;42.678;23.312;2023-05-07T05:21:43;10.80;93.00
5808;DHT22;2930;42.678;23.312;2023-05-07T05:24:08;10.90;92.70
5808;DHT22;2930;42.678;23.312;2023-05-07T05:26:34;11.00;92.30
5808;DHT22;2930;42.678;23.312;2023-05-07T05:29:00;11.00;92.30
5808;DHT22;2930;42.678;23.312;2023-05-07T05:31:26;11.10;91.80
5808;DHT22;2930;42.678;23.312;2023-05-07T05:33:51;11.20;91.80
5808;DHT22;2930;42.678;23.312;2023-05-07T05:36:17;11.20;91.70
5808;DHT22;2930;42.678;23.312;2023-05-07T05:38:43;11.30;91.60
5808;DHT22;2930;42.678;23.312;2023-05-07T05:41:09;11.40;91.20
5808;DHT22;2930;42.678;23.312;2023-05-07T05:43:35;11.50;91.10
5808;DHT22;2930;42.678;23.312;2023-05-07T05:46:01;11.50;91.10
5808;DHT22;2930;42.678;23.312;2023-05-07T05:48:28;11.60;91.10
5808;DHT22;2930;42.678;23.312;2023-05-07T05:50:54;11.70;91.00
5808;DHT22;2930;42.678;23.312;2023-05-07T05:53:19;11.80;90.90
5808;DHT22;2930;42.678;23.312;2023-05-07T05:55:45;11.80;90.60
5808;DHT22;2930;42.678;23.312;2023-05-07T05:58:12;11.90;90.60
5808;DHT22;2930;42.678;23.312;2023-05-07T06:00:38;12.00;90.40
5808;DHT22;2930;42.678;23.312;2023-05-07T06:03:04;12.10;90.20
5808;DHT22;2930;42.678;23.312;2023-05-07T06:05:30;12.20;90.20
5808;DHT22;2930;42.678;23.312;2023-05-07T06:07:55;12.20;90.00
5808;DHT22;2930;42.678;23.312;2023-05-07T06:10:21;12.30;90.10
5808;DHT22;2930;42.678;23.312;2023-05-07T06:12:47;12.30;89.90
5808;DHT22;2930;42.678;23.312;2023-05-07T06:15:12;12.50;89.60
5808;DHT22;2930;42.678;23.312;2023-05-07T06:17:38;12.50;89.30
5808;DHT22;2930;42.678;23.312;2023-05-07T06:20:04;12.60;89.10
5808;DHT22;2930;42.678;23.312;2023-05-07T06:22:30;12.70;88.80
5808;DHT22;2930;42.678;23.312;2023-05-07T06:24:56;12.80;88.80
5808;DHT22;2930;42.678;23.312;2023-05-07T06:27:21;12.90;88.60
5808;DHT22;2930;42.678;23.312;2023-05-07T06:29:48;13.00;88.40
5808;DHT22;2930;42.678;23.312;2023-05-07T06:32:14;13.00;88.30
5808;DHT22;2930;42.678;23.312;2023-05-07T06:34:40;13.10;88.30
5808;DHT22;2930;42.678;23.312;2023-05-07T06:37:06;13.20;88.10
5808;DHT22;2930;42.678;23.312;2023-05-07T06:39:32;13.30;87.70
5808;DHT22;2930;42.678;23.312;2023-05-07T06:42:00;13.40;87.20
5808;DHT22;2930;42.678;23.312;2023-05-07T06:44:26;13.40;86.90
5808;DHT22;2930;42.678;23.312;2023-05-07T06:46:52;13.50;86.80
5808;DHT22;2930;42.678;23.312;2023-05-07T06:49:18;13.60;86.50
5808;DHT22;2930;42.678;23.312;2023-05-07T06:51:43;13.70;86.50
5808;DHT22;2930;42.678;23.312;2023-05-07T06:54:09;13.80;85.40
5808;DHT22;2930;42.678;23.312;2023-05-07T06:56:35;13.80;85.30
5808;DHT22;2930;42.678;23.312;2023-05-07T06:59:01;13.90;85.30
5808;DHT22;2930;42.678;23.312;2023-05-07T07:01:28;14.00;84.50
5808;DHT22;2930;42.678;23.312;2023-05-07T07:03:53;14.00;83.60
5808;DHT22;2930;42.678;23.312;2023-05-07T07:06:19;14.10;84.10
5808;DHT22;2930;42.678;23.312;2023-05-07T07:08:45;14.20;83.50
5808;DHT22;2930;42.678;23.312;2023-05-07T07:11:11;14.30;82.80
5808;DHT22;2930;42.678;23.312;2023-05-07T07:13:36;14.30;82.90
5808;DHT22;2930;42.678;23.312;2023-05-07T07:16:02;14.40;83.30
5808;DHT22;2930;42.678;23.312;2023-05-07T07:18:28;14.40;82.90
5808;DHT22;2930;42.678;23.312;2023-05-07T07:20:54;14.50;83.30
5808;DHT22;2930;42.678;23.312;2023-05-07T07:23:20;14.60;83.40
5808;DHT22;2930;42.678;23.312;2023-05-07T07:25:46;14.80;83.30
5808;DHT22;2930;42.678;23.312;2023-05-07T07:28:11;14.80;83.30
5808;DHT22;2930;42.678;23.312;2023-05-07T07:30:38;14.90;83.00
5808;DHT22;2930;42.678;23.312;2023-05-07T07:33:04;15.10;82.40
5808;DHT22;2930;42.678;23.312;2023-05-07T07:35:33;15.20;81.80
5808;DHT22;2930;42.678;23.312;2023-05-07T07:37:59;15.30;81.50
5808;DHT22;2930;42.678;23.312;2023-05-07T07:40:25;15.30;81.50
5808;DHT22;2930;42.678;23.312;2023-05-07T07:42:52;15.40;81.70
5808;DHT22;2930;42.678;23.312;2023-05-07T07:45:17;15.50;80.90
5808;DHT22;2930;42.678;23.312;2023-05-07T07:47:43;15.60;80.60
5808;DHT22;2930;42.678;23.312;2023-05-07T07:50:09;15.70;80.50
5808;DHT22;2930;42.678;23.312;2023-05-07T07:52:35;15.80;80.20
5808;DHT22;2930;42.678;23.312;2023-05-07T07:55:01;15.90;79.40
5808;DHT22;2930;42.678;23.312;2023-05-07T07:57:26;15.90;78.50
5808;DHT22;2930;42.678;23.312;2023-05-07T08:02:18;16.10;78.30
5808;DHT22;2930;42.678;23.312;2023-05-07T08:04:45;16.20;78.40
5808;DHT22;2930;42.678;23.312;2023-05-07T08:07:11;16.30;77.50
5808;DHT22;2930;42.678;23.312;2023-05-07T08:09:37;16.40;77.20
5808;DHT22;2930;42.678;23.312;2023-05-07T08:12:04;16.50;76.00
5808;DHT22;2930;42.678;23.312;2023-05-07T08:14:30;16.70;76.70
5808;DHT22;2930;42.678;23.312;2023-05-07T08:16:56;16.70;76.60
5808;DHT22;2930;42.678;23.312;2023-05-07T08:19:21;16.80;76.30
5808;DHT22;2930;42.678;23.312;2023-05-07T08:21:47;16.90;74.30
5808;DHT22;2930;42.678;23.312;2023-05-07T08:24:17;17.00;73.80
5808;DHT22;2930;42.678;23.312;2023-05-07T08:26:45;17.10;73.40
5808;DHT22;2930;42.678;23.312;2023-05-07T08:29:11;17.20;73.80
5808;DHT22;2930;42.678;23.312;2023-05-07T08:31:36;17.30;74.70
5808;DHT22;2930;42.678;23.312;2023-05-07T08:34:04;17.50;74.70
5808;DHT22;2930;42.678;23.312;2023-05-07T08:36:30;17.60;73.30
5808;DHT22;2930;42.678;23.312;2023-05-07T08:38:56;17.80;73.50
5808;DHT22;2930;42.678;23.312;2023-05-07T08:41:21;18.00;74.10
5808;DHT22;2930;42.678;23.312;2023-05-07T08:43:51;18.20;74.30
5808;DHT22;2930;42.678;23.312;2023-05-07T08:46:20;18.40;73.70
5808;DHT22;2930;42.678;23.312;2023-05-07T08:48:50;18.60;70.40
5808;DHT22;2930;42.678;23.312;2023-05-07T08:51:18;18.60;70.40
5808;DHT22;2930;42.678;23.312;2023-05-07T08:53:44;18.80;69.00
5808;DHT22;2930;42.678;23.312;2023-05-07T08:56:11;18.80;68.30
5808;DHT22;2930;42.678;23.312;2023-05-07T08:58:37;18.90;68.30
5808;DHT22;2930;42.678;23.312;2023-05-07T09:01:09;19.00;70.60
5808;DHT22;2930;42.678;23.312;2023-05-07T09:03:37;19.20;69.60
5808;DHT22;2930;42.678;23.312;2023-05-07T09:06:04;19.30;69.90
5808;DHT22;2930;42.678;23.312;2023-05-07T09:08:32;19.50;70.40
5808;DHT22;2930;42.678;23.312;2023-05-07T09:10:57;19.60;68.20
5808;DHT22;2930;42.678;23.312;2023-05-07T09:13:23;19.80;67.80
5808;DHT22;2930;42.678;23.312;2023-05-07T09:15:49;19.90;67.40
5808;DHT22;2930;42.678;23.312;2023-05-07T09:18:14;20.00;68.00
5808;DHT22;2930;42.678;23.312;2023-05-07T09:20:40;20.20;66.30
5808;DHT22;2930;42.678;23.312;2023-05-07T09:23:07;20.30;64.90
5808;DHT22;2930;42.678;23.312;2023-05-07T09:25:34;20.50;64.80
5808;DHT22;2930;42.678;23.312;2023-05-07T09:28:00;20.60;66.10
5808;DHT22;2930;42.678;23.312;2023-05-07T09:30:30;20.70;63.60
5808;DHT22;2930;42.678;23.312;2023-05-07T09:33:00;20.80;64.80
5808;DHT22;2930;42.678;23.312;2023-05-07T09:35:26;20.90;64.20
5808;DHT22;2930;42.678;23.312;2023-05-07T09:38:00;21.20;64.30
5808;DHT22;2930;42.678;23.312;2023-05-07T09:40:30;21.40;62.60
5808;DHT22;2930;42.678;23.312;2023-05-07T09:43:01;21.70;61.30
5808;DHT22;2930;42.678;23.312;2023-05-07T09:45:33;22.10;62.70
5808;DHT22;2930;42.678;23.312;2023-05-07T09:48:00;22.60;61.60
5808;DHT22;2930;42.678;23.312;2023-05-07T09:50:35;23.10;60.10
5808;DHT22;2930;42.678;23.312;2023-05-07T09:53:01;23.70;59.70
5808;DHT22;2930;42.678;23.312;2023-05-07T09:55:28;24.40;56.50
5808;DHT22;2930;42.678;23.312;2023-05-07T09:57:54;25.20;54.30
5808;DHT22;2930;42.678;23.312;2023-05-07T10:00:21;26.00;53.20
5808;DHT22;2930;42.678;23.312;2023-05-07T10:02:52;26.70;54.40
5808;DHT22;2930;42.678;23.312;2023-05-07T10:05:18;27.40;52.00
5808;DHT22;2930;42.678;23.312;2023-05-07T10:07:46;28.30;52.00
5808;DHT22;2930;42.678;23.312;2023-05-07T10:10:12;29.10;49.80
5808;DHT22;2930;42.678;23.312;2023-05-07T10:12:38;29.90;48.60
5808;DHT22;2930;42.678;23.312;2023-05-07T10:15:10;30.50;46.70
5808;DHT22;2930;42.678;23.312;2023-05-07T10:17:37;31.20;45.90
5808;DHT22;2930;42.678;23.312;2023-05-07T10:20:04;31.60;44.80
5808;DHT22;2930;42.678;23.312;2023-05-07T10:22:44;32.40;44.00
5808;DHT22;2930;42.678;23.312;2023-05-07T10:25:30;32.50;43.90
5808;DHT22;2930;42.678;23.312;2023-05-07T10:28:00;32.10;43.10
5808;DHT22;2930;42.678;23.312;2023-05-07T10:33:13;29.80;45.50
5808;DHT22;2930;42.678;23.312;2023-05-07T10:35:42;29.50;46.10
5808;DHT22;2930;42.678;23.312;2023-05-07T10:38:08;29.30;46.50
5808;DHT22;2930;42.678;23.312;2023-05-07T10:40:34;29.40;47.70
5808;DHT22;2930;42.678;23.312;2023-05-07T10:43:03;29.90;46.10
5808;DHT22;2930;42.678;23.312;2023-05-07T10:45:31;30.50;45.30
5808;DHT22;2930;42.678;23.312;2023-05-07T10:48:22;30.50;44.30
5808;DHT22;2930;42.678;23.312;2023-05-07T10:50:48;30.70;44.70
5808;DHT22;2930;42.678;23.312;2023-05-07T10:55:43;31.00;44.60
5808;DHT22;2930;42.678;23.312;2023-05-07T10:58:27;31.20;44.40
5808;DHT22;2930;42.678;23.312;2023-05-07T11:01:01;31.70;44.80
5808;DHT22;2930;42.678;23.312;2023-05-07T11:03:27;32.10;44.30
5808;DHT22;2930;42.678;23.312;2023-05-07T11:06:09;32.60;43.10
5808;DHT22;2930;42.678;23.312;2023-05-07T11:08:55;32.60;43.40
5808;DHT22;2930;42.678;23.312;2023-05-07T11:11:58;32.20;43.00
5808;DHT22;2930;42.678;23.312;2023-05-07T11:14:50;31.60;43.20
5808;DHT22;2930;42.678;23.312;2023-05-07T11:17:17;31.70;43.20
5808;DHT22;2930;42.678;23.312;2023-05-07T11:19:50;31.90;43.00
5808;DHT22;2930;42.678;23.312;2023-05-07T11:24:59;32.10;42.60
5808;DHT22;2930;42.678;23.312;2023-05-07T11:27:26;32.40;44.80
5808;DHT22;2930;42.678;23.312;2023-05-07T11:29:52;32.60;43.70
5808;DHT22;2930;42.678;23.312;2023-05-07T11:32:28;32.50;41.60
5808;DHT22;2930;42.678;23.312;2023-05-07T11:34:55;32.50;42.40
5808;DHT22;2930;42.678;23.312;2023-05-07T11:37:22;32.30;42.00
5808;DHT22;2930;42.678;23.312;2023-05-07T11:39:48;32.30;40.80
5808;DHT22;2930;42.678;23.312;2023-05-07T11:42:31;32.50;42.90
5808;DHT22;2930;42.678;23.312;2023-05-07T11:44:57;32.50;42.20
5808;DHT22;2930;42.678;23.312;2023-05-07T11:47:23;32.90;42.30
5808;DHT22;2930;42.678;23.312;2023-05-07T11:49:51;33.50;41.50
5808;DHT22;2930;42.678;23.312;2023-05-07T11:52:18;34.10;41.40
5808;DHT22;2930;42.678;23.312;2023-05-07T11:54:55;34.00;40.30
5808;DHT22;2930;42.678;23.312;2023-05-07T11:57:24;34.10;40.30
5808;DHT22;2930;42.678;23.312;2023-05-07T11:59:54;34.20;41.80
5808;DHT22;2930;42.678;23.312;2023-05-07T12:02:19;34.40;40.00
5808;DHT22;2930;42.678;23.312;2023-05-07T12:04:45;34.70;40.40
5808;DHT22;2930;42.678;23.312;2023-05-07T12:07:12;35.20;42.50
5808;DHT22;2930;42.678;23.312;2023-05-07T12:09:39;35.80;45.90
5808;DHT22;2930;42.678;23.312;2023-05-07T12:12:05;36.10;42.10
5808;DHT22;2930;42.678;23.312;2023-05-07T12:14:31;36.50;41.80
5808;DHT22;2930;42.678;23.312;2023-05-07T12:16:59;36.70;38.70
5808;DHT22;2930;42.678;23.312;2023-05-07T12:19:29;36.70;38.20
5808;DHT22;2930;42.678;23.312;2023-05-07T12:21:55;36.90;41.70
5808;DHT22;2930;42.678;23.312;2023-05-07T12:24:21;37.10;40.20
5808;DHT22;2930;42.678;23.312;2023-05-07T12:26:48;37.60;42.80
5808;DHT22;2930;42.678;23.312;2023-05-07T12:29:13;38.10;40.70
5808;DHT22;2930;42.678;23.312;2023-05-07T12:31:42;38.50;39.40
5808;DHT22;2930;42.678;23.312;2023-05-07T12:34:10;38.90;38.40
5808;DHT22;2930;42.678;23.312;2023-05-07T12:36:37;39.40;35.60
5808;DHT22;2930;42.678;23.312;2023-05-07T12:39:07;39.70;35.60
5808;DHT22;2930;42.678;23.312;2023-05-07T12:41:52;39.80;37.10
5808;DHT22;2930;42.678;23.312;2023-05-07T12:44:18;39.90;38.20
5808;DHT22;2930;42.678;23.312;2023-05-07T12:46:44;40.10;40.10
5808;DHT22;2930;42.678;23.312;2023-05-07T12:49:12;40.30;37.00
5808;DHT22;2930;42.678;23.312;2023-05-07T12:51:37;40.40;37.70
5808;DHT22;2930;42.678;23.312;2023-05-07T12:54:03;40.50;36.40
5808;DHT22;2930;42.678;23.312;2023-05-07T12:56:31;40.50;42.40
5808;DHT22;2930;42.678;23.312;2023-05-07T12:58:59;40.80;37.20
5808;DHT22;2930;42.678;23.312;2023-05-07T13:01:29;40.90;38.90
5808;DHT22;2930;42.678;23.312;2023-05-07T13:03:55;41.20;36.70
5808;DHT22;2930;42.678;23.312;2023-05-07T13:06:21;41.20;37.80
5808;DHT22;2930;42.678;23.312;2023-05-07T13:08:46;41.30;37.70
5808;DHT22;2930;42.678;23.312;2023-05-07T13:11:13;41.30;39.70
5808;DHT22;2930;42.678;23.312;2023-05-07T13:13:40;41.40;36.40
5808;DHT22;2930;42.678;23.312;2023-05-07T13:16:07;41.20;38.10
5808;DHT22;2930;42.678;23.312;2023-05-07T13:18:33;40.70;36.50
5808;DHT22;2930;42.678;23.312;2023-05-07T13:21:00;40.50;41.00
5808;DHT22;2930;42.678;23.312;2023-05-07T13:23:26;40.60;38.50
5808;DHT22;2930;42.678;23.312;2023-05-07T13:25:52;40.70;36.20
5808;DHT22;2930;42.678;23.312;2023-05-07T13:28:22;40.90;36.80
5808;DHT22;2930;42.678;23.312;2023-05-07T13:30:48;41.10;38.00
5808;DHT22;2930;42.678;23.312;2023-05-07T13:33:14;41.30;38.70
5808;DHT22;2930;42.678;23.312;2023-05-07T13:35:41;41.50;38.50
5808;DHT22;2930;42.678;23.312;2023-05-07T13:38:07;41.60;38.30
5808;DHT22;2930;42.678;23.312;2023-05-07T13:40:33;41.80;37.10
5808;DHT22;2930;42.678;23.312;2023-05-07T13:42:59;41.90;37.30
5808;DHT22;2930;42.678;23.312;2023-05-07T13:45:27;41.80;39.20
5808;DHT22;2930;42.678;23.312;2023-05-07T13:47:55;41.30;34.50
5808;DHT22;2930;42.678;23.312;2023-05-07T13:50:21;40.90;34.70
5808;DHT22;2930;42.678;23.312;2023-05-07T13:52:47;39.50;35.30
5808;DHT22;2930;42.678;23.312;2023-05-07T13:55:23;39.30;37.60
5808;DHT22;2930;42.678;23.312;2023-05-07T13:57:58;39.10;39.10
5808;DHT22;2930;42.678;23.312;2023-05-07T14:00:25;38.70;39.20
5808;DHT22;2930;42.678;23.312;2023-05-07T14:02:52;38.90;40.40
5808;DHT22;2930;42.678;23.312;2023-05-07T14:05:18;39.10;35.90
5808;DHT22;2930;42.678;23.312;2023-05-07T14:07:43;39.30;41.00
5808;DHT22;2930;42.678;23.312;2023-05-07T14:10:09;39.60;41.10
5808;DHT22;2930;42.678;23.312;2023-05-07T14:12:36;39.80;38.80
5808;DHT22;2930;42.678;23.312;2023-05-07T14:15:02;40.10;40.00
5808;DHT22;2930;42.678;23.312;2023-05-07T14:17:28;40.10;37.70
5808;DHT22;2930;42.678;23.312;2023-05-07T14:19:54;40.00;35.50
5808;DHT22;2930;42.678;23.312;2023-05-07T14:22:20;39.60;37.10
5808;DHT22;2930;42.678;23.312;2023-05-07T14:24:47;38.90;37.30
5808;DHT22;2930;42.678;23.312;2023-05-07T14:27:12;38.00;36.70
5808;DHT22;2930;42.678;23.312;2023-05-07T14:29:38;36.70;38.50
5808;DHT22;2930;42.678;23.312;2023-05-07T14:32:04;35.80;39.40
5808;DHT22;2930;42.678;23.312;2023-05-07T14:34:31;35.10;38.70
5808;DHT22;2930;42.678;23.312;2023-05-07T14:36:57;34.50;41.10
5808;DHT22;2930;42.678;23.312;2023-05-07T14:39:23;34.30;40.50
5808;DHT22;2930;42.678;23.312;2023-05-07T14:41:48;34.00;42.40
5808;DHT22;2930;42.678;23.312;2023-05-07T14:44:14;33.90;42.00
5808;DHT22;2930;42.678;23.312;2023-05-07T14:46:40;34.00;42.30
5808;DHT22;2930;42.678;23.312;2023-05-07T14:49:06;34.20;41.00
5808;DHT22;2930;42.678;23.312;2023-05-07T14:51:32;34.40;41.90
5808;DHT22;2930;42.678;23.312;2023-05-07T14:53:58;34.60;41.30
5808;DHT22;2930;42.678;23.312;2023-05-07T14:56:24;34.90;41.80
5808;DHT22;2930;42.678;23.312;2023-05-07T14:58:50;35.20;40.90
5808;DHT22;2930;42.678;23.312;2023-05-07T15:01:16;35.30;38.90
5808;DHT22;2930;42.678;23.312;2023-05-07T15:03:41;35.10;39.20
5808;DHT22;2930;42.678;23.312;2023-05-07T15:06:07;35.10;41.60
5808;DHT22;2930;42.678;23.312;2023-05-07T15:08:33;35.10;41.80
5808;DHT22;2930;42.678;23.312;2023-05-07T15:10:58;35.10;41.00
5808;DHT22;2930;42.678;23.312;2023-05-07T15:13:24;35.10;41.60
5808;DHT22;2930;42.678;23.312;2023-05-07T15:15:50;35.10;40.30
5808;DHT22;2930;42.678;23.312;2023-05-07T15:18:16;35.00;39.20
5808;DHT22;2930;42.678;23.312;2023-05-07T15:20:42;34.10;39.40
5808;DHT22;2930;42.678;23.312;2023-05-07T15:23:08;33.60;41.40
5808;DHT22;2930;42.678;23.312;2023-05-07T15:25:36;33.30;40.90
5808;DHT22;2930;42.678;23.312;2023-05-07T15:28:02;32.50;41.20
5808;DHT22;2930;42.678;23.312;2023-05-07T15:30:27;32.10;42.90
5808;DHT22;2930;42.678;23.312;2023-05-07T15:32:53;31.60;42.30
5808;DHT22;2930;42.678;23.312;2023-05-07T15:35:19;31.10;42.60
5808;DHT22;2930;42.678;23.312;2023-05-07T15:37:48;30.90;44.50
5808;DHT22;2930;42.678;23.312;2023-05-07T15:40:15;30.90;43.40
5808;DHT22;2930;42.678;23.312;2023-05-07T15:42:40;31.00;44.20
5808;DHT22;2930;42.678;23.312;2023-05-07T15:45:06;31.00;43.00
5808;DHT22;2930;42.678;23.312;2023-05-07T15:47:33;30.90;43.00
5808;DHT22;2930;42.678;23.312;2023-05-07T15:50:02;30.60;42.60
5808;DHT22;2930;42.678;23.312;2023-05-07T15:52:27;30.20;43.10
5808;DHT22;2930;42.678;23.312;2023-05-07T15:54:54;30.00;44.30
5808;DHT22;2930;42.678;23.312;2023-05-07T15:57:20;29.90;44.10
5808;DHT22;2930;42.678;23.312;2023-05-07T15:59:46;29.70;44.10
5808;DHT22;2930;42.678;23.312;2023-05-07T16:02:12;29.40;43.70
5808;DHT22;2930;42.678;23.312;2023-05-07T16:04:38;29.20;44.40